createdAt,value
2022-10-13T00:01:45.274Z,15.93
2022-10-13T00:04:14.252Z,17.93
2022-10-13T00:06:41.856Z,16.53
2022-10-13T00:09:09.656Z,16.23
2022-10-13T00:11:37.632Z,17.50
2022-10-13T00:14:06.176Z,14.70
2022-10-13T00:16:34.256Z,18.80
2022-10-13T00:19:02.191Z,18.73
2022-10-13T00:21:31.597Z,16.60
2022-10-13T00:23:59.511Z,16.80
2022-10-13T00:26:27.724Z,17.03
2022-10-13T00:28:56.369Z,16.70
2022-10-13T00:31:26.768Z,15.93
2022-10-13T00:33:55.122Z,16.27
2022-10-13T00:36:24.119Z,14.90
2022-10-13T00:38:53.852Z,15.70
2022-10-13T00:41:22.530Z,16.33
2022-10-13T00:43:53.733Z,18.13
2022-10-13T00:46:22.049Z,15.50
2022-10-13T00:48:51.767Z,15.97
2022-10-13T00:51:23.590Z,12.70
2022-10-13T00:53:53.842Z,16.80
2022-10-13T00:56:23.753Z,14.03
2022-10-13T00:58:52.101Z,13.20
2022-10-13T01:01:19.874Z,15.40
2022-10-13T01:03:48.168Z,14.77
2022-10-13T01:06:22.503Z,12.60
2022-10-13T01:08:51.161Z,13.57
2022-10-13T01:11:48.673Z,12.60
2022-10-13T01:14:26.413Z,12.43
2022-10-13T01:17:01.859Z,11.50
2022-10-13T01:20:06.106Z,13.13
2022-10-13T01:22:47.902Z,14.37
2022-10-13T01:25:34.971Z,13.07
2022-10-13T01:28:21.602Z,12.47
2022-10-13T01:30:57.609Z,13.50
2022-10-13T01:33:36.249Z,10.57
2022-10-13T01:36:16.477Z,10.97
2022-10-13T01:38:54.175Z,11.23
2022-10-13T01:41:26.980Z,13.70
2022-10-13T01:43:58.834Z,8.40
2022-10-13T01:46:31.268Z,11.53
2022-10-13T01:49:03.045Z,11.40
2022-10-13T01:51:32.671Z,9.13
2022-10-13T01:54:00.442Z,9.30
2022-10-13T01:56:28.370Z,10.07
2022-10-13T01:58:59.554Z,7.47
2022-10-13T02:01:39.223Z,8.37
2022-10-13T02:04:20.590Z,9.60
2022-10-13T02:06:54.255Z,9.10
2022-10-13T02:09:28.162Z,9.50
2022-10-13T02:11:59.660Z,9.43
2022-10-13T02:14:30.846Z,9.53
2022-10-13T02:17:03.659Z,10.33
2022-10-13T02:19:34.421Z,10.13
2022-10-13T02:22:02.039Z,12.37
2022-10-13T02:24:29.811Z,12.30
2022-10-13T02:26:57.770Z,13.37
2022-10-13T02:29:25.770Z,12.87
2022-10-13T02:31:54.748Z,13.33
2022-10-13T02:34:23.660Z,11.73
2022-10-13T02:36:51.258Z,11.87
2022-10-13T02:39:18.825Z,12.03
2022-10-13T02:41:46.422Z,10.90
2022-10-13T02:44:13.994Z,11.73
2022-10-13T02:46:41.793Z,10.80
2022-10-13T02:49:10.758Z,10.97
2022-10-13T02:51:40.584Z,11.10
2022-10-13T02:54:08.542Z,13.23
2022-10-13T02:56:36.113Z,11.87
2022-10-13T02:59:03.813Z,10.47
2022-10-13T03:01:31.459Z,12.60
2022-10-13T03:03:59.046Z,12.57
2022-10-13T03:06:26.587Z,10.17
2022-10-13T03:08:55.508Z,10.17
2022-10-13T03:11:23.043Z,12.23
2022-10-13T03:13:50.675Z,9.07
2022-10-13T03:16:18.274Z,11.17
2022-10-13T03:18:45.867Z,9.70
2022-10-13T03:21:13.500Z,8.43
2022-10-13T03:23:41.224Z,9.27
2022-10-13T03:26:10.127Z,8.73
2022-10-13T03:28:37.722Z,7.53
2022-10-13T03:31:07.734Z,7.47
2022-10-13T03:33:35.938Z,7.87
2022-10-13T03:36:06.159Z,8.43
2022-10-13T03:38:35.858Z,7.20
2022-10-13T03:41:07.624Z,6.40
2022-10-13T03:43:37.174Z,6.87
2022-10-13T03:46:07.855Z,6.97
2022-10-13T03:48:37.074Z,7.57
2022-10-13T03:51:06.699Z,7.87
2022-10-13T03:53:34.417Z,8.03
2022-10-13T03:56:02.478Z,7.53
2022-10-13T03:58:30.166Z,8.03
2022-10-13T04:01:04.767Z,10.13
2022-10-13T04:03:33.575Z,10.23
2022-10-13T04:06:01.428Z,8.43
2022-10-13T04:08:29.014Z,8.67
2022-10-13T04:11:00.574Z,8.20
2022-10-13T04:13:28.202Z,9.20
2022-10-13T04:15:55.769Z,8.63
2022-10-13T04:18:24.875Z,8.77
2022-10-13T04:20:52.424Z,8.27
2022-10-13T04:23:20.053Z,8.97
2022-10-13T04:25:47.635Z,8.97
2022-10-13T04:28:15.389Z,8.43
2022-10-13T04:30:48.473Z,8.63
2022-10-13T04:33:17.058Z,8.67
2022-10-13T04:35:46.081Z,8.03
2022-10-13T04:38:14.040Z,10.37
2022-10-13T04:40:42.052Z,7.97
2022-10-13T04:43:09.649Z,8.43
2022-10-13T04:45:40.285Z,6.30
2022-10-13T04:48:07.919Z,8.53
2022-10-13T04:50:35.556Z,8.40
2022-10-13T04:53:06.407Z,7.90
2022-10-13T04:55:37.433Z,8.57
2022-10-13T04:58:05.314Z,9.70
2022-10-13T05:00:32.976Z,8.23
2022-10-13T05:03:00.548Z,10.03
2022-10-13T05:05:28.177Z,8.90
2022-10-13T05:07:55.740Z,10.67
2022-10-13T05:10:25.185Z,8.83
2022-10-13T05:12:54.422Z,8.07
2022-10-13T05:15:22.056Z,8.87
2022-10-13T05:17:49.738Z,9.20
2022-10-13T05:20:17.745Z,13.47
2022-10-13T05:22:45.802Z,12.43
2022-10-13T05:25:13.431Z,11.30
2022-10-13T05:27:42.420Z,8.67
2022-10-13T05:30:11.180Z,9.33
2022-10-13T05:32:38.775Z,9.43
2022-10-13T05:35:07.179Z,11.17
2022-10-13T05:37:34.772Z,9.17
2022-10-13T05:40:02.440Z,11.20
2022-10-13T05:42:30.884Z,10.47
2022-10-13T05:44:59.878Z,10.50
2022-10-13T05:47:28.279Z,11.33
2022-10-13T05:49:55.955Z,11.77
2022-10-13T05:52:26.028Z,10.27
2022-10-13T05:54:57.572Z,9.27
2022-10-13T05:57:29.004Z,11.90
2022-10-13T06:00:02.404Z,11.67
2022-10-13T06:02:35.187Z,9.23
2022-10-13T06:05:05.726Z,9.97
2022-10-13T06:07:33.986Z,10.73
2022-10-13T06:10:02.591Z,12.00
2022-10-13T06:12:30.158Z,12.53
2022-10-13T06:14:57.847Z,14.27
2022-10-13T06:17:26.796Z,10.13
2022-10-13T06:19:54.377Z,10.47
2022-10-13T06:22:22.683Z,12.40
2022-10-13T06:24:50.470Z,12.93
2022-10-13T06:27:18.088Z,11.30
2022-10-13T06:29:45.683Z,12.10
2022-10-13T06:32:13.287Z,10.20
2022-10-13T06:34:42.200Z,10.77
2022-10-13T06:37:10.278Z,11.40
2022-10-13T06:39:38.042Z,10.33
2022-10-13T06:42:05.944Z,10.53
2022-10-13T06:44:33.496Z,11.37
2022-10-13T06:47:03.115Z,11.10
2022-10-13T06:49:30.710Z,12.13
2022-10-13T06:51:59.784Z,10.67
2022-10-13T06:54:27.418Z,11.30
2022-10-13T06:56:54.968Z,13.37
2022-10-13T06:59:22.566Z,12.97
2022-10-13T07:01:51.739Z,11.93
2022-10-13T07:04:19.310Z,15.33
2022-10-13T07:06:46.878Z,13.83
2022-10-13T07:09:15.804Z,12.53
2022-10-13T07:11:45.211Z,13.40
2022-10-13T07:14:13.001Z,14.87
2022-10-13T07:16:41.006Z,14.07
2022-10-13T07:19:08.823Z,14.23
2022-10-13T07:21:36.416Z,12.90
2022-10-13T07:24:04.552Z,11.20
2022-10-13T07:26:33.914Z,12.83
2022-10-13T07:29:01.993Z,11.63
2022-10-13T07:31:29.702Z,15.20
2022-10-13T07:34:00.635Z,14.90
2022-10-13T07:36:28.646Z,12.83
2022-10-13T07:38:56.198Z,13.17
2022-10-13T07:41:23.805Z,15.60
2022-10-13T07:43:56.634Z,12.57
2022-10-13T07:46:24.530Z,13.20
2022-10-13T07:48:53.153Z,14.40
2022-10-13T07:51:22.223Z,14.33
2022-10-13T07:53:50.490Z,19.03
2022-10-13T07:56:18.228Z,15.67
2022-10-13T07:58:47.435Z,14.30
2022-10-13T08:01:17.779Z,14.63
2022-10-13T08:03:49.866Z,14.93
2022-10-13T08:06:18.541Z,14.17
2022-10-13T08:08:46.119Z,17.37
2022-10-13T08:11:16.935Z,12.93
2022-10-13T08:13:48.697Z,15.13
2022-10-13T08:16:18.030Z,17.40
2022-10-13T08:18:45.988Z,15.83
2022-10-13T08:21:52.792Z,12.03
2022-10-13T08:24:05.686Z,16.23
2022-10-13T08:26:33.333Z,15.93
2022-10-13T08:34:23.012Z,13.80
2022-10-13T08:36:53.055Z,13.17
2022-10-13T08:39:21.084Z,16.27
2022-10-13T08:41:49.354Z,14.97
2022-10-13T08:47:19.408Z,16.67
2022-10-13T08:49:47.628Z,18.60
2022-10-13T08:52:21.434Z,13.37
2022-10-13T08:54:50.379Z,16.20
2022-10-13T08:57:19.089Z,16.47
2022-10-13T08:59:47.554Z,14.40
2022-10-13T09:02:24.817Z,15.43
2022-10-13T09:04:54.182Z,17.07
2022-10-13T09:07:27.556Z,14.77
2022-10-13T09:09:56.370Z,14.33
2022-10-13T09:12:25.197Z,15.90
2022-10-13T09:15:01.518Z,12.90
2022-10-13T09:17:31.077Z,14.60
2022-10-13T09:20:02.042Z,15.30
2022-10-13T09:22:33.920Z,12.63
2022-10-13T09:25:25.713Z,12.40
2022-10-13T09:27:55.263Z,16.40
2022-10-13T09:30:31.963Z,15.10
2022-10-13T09:33:14.964Z,12.30
2022-10-13T09:35:44.589Z,12.40
2022-10-13T09:38:16.523Z,11.93
2022-10-13T09:40:45.470Z,12.37
2022-10-13T09:43:30.567Z,13.37
2022-10-13T09:45:59.358Z,11.83
2022-10-13T09:48:30.929Z,10.93
2022-10-13T09:50:59.137Z,10.80
2022-10-13T09:53:33.010Z,9.33
2022-10-13T09:56:18.256Z,8.10
2022-10-13T09:58:51.823Z,10.20
2022-10-13T10:01:25.060Z,9.07
2022-10-13T10:03:56.282Z,9.93
2022-10-13T10:06:26.992Z,11.03
2022-10-13T10:09:04.257Z,11.33
2022-10-13T10:11:35.571Z,11.73
2022-10-13T10:14:17.262Z,10.20
2022-10-13T10:16:51.589Z,11.83
2022-10-13T10:19:26.526Z,10.50
2022-10-13T10:22:04.108Z,7.87
2022-10-13T10:24:39.140Z,9.17
2022-10-13T10:27:12.746Z,10.13
2022-10-13T10:29:49.979Z,9.13
2022-10-13T10:32:28.227Z,11.33
2022-10-13T10:35:02.608Z,9.17
2022-10-13T10:37:45.564Z,10.77
2022-10-13T10:40:25.707Z,8.97
2022-10-13T10:43:25.055Z,10.50
2022-10-13T10:45:52.658Z,10.93
2022-10-13T10:48:23.906Z,9.83
2022-10-13T10:50:54.311Z,11.77
2022-10-13T10:53:32.623Z,8.73
2022-10-13T10:56:06.676Z,11.73
2022-10-13T10:58:45.136Z,10.57
2022-10-13T11:01:28.206Z,9.43
2022-10-13T11:03:59.730Z,9.17
2022-10-13T11:06:35.835Z,10.20
2022-10-13T11:09:04.960Z,9.27
2022-10-13T11:11:41.167Z,12.77
2022-10-13T11:14:26.343Z,11.70
2022-10-13T11:17:04.520Z,11.60
2022-10-13T11:19:34.328Z,9.27
2022-10-13T11:22:25.244Z,9.57
2022-10-13T11:25:05.131Z,10.53
2022-10-13T11:27:43.585Z,8.47
2022-10-13T11:30:44.304Z,8.43
2022-10-13T11:33:34.605Z,10.50
2022-10-13T11:40:32.168Z,11.37
2022-10-13T11:43:19.235Z,11.63
2022-10-13T11:45:56.615Z,11.70
2022-10-13T11:48:56.999Z,11.27
2022-10-13T11:51:32.966Z,10.67
2022-10-13T11:54:11.821Z,12.50
2022-10-13T11:56:49.059Z,8.43
2022-10-13T11:59:25.763Z,8.60
2022-10-13T12:01:58.814Z,10.83
2022-10-13T12:04:28.820Z,12.47
2022-10-13T12:07:02.485Z,10.77
2022-10-13T12:09:32.433Z,11.93
2022-10-13T12:12:04.166Z,10.00
2022-10-13T12:17:04.111Z,10.67
2022-10-13T12:19:33.199Z,11.87
2022-10-13T12:22:02.381Z,14.27
2022-10-13T12:24:31.538Z,11.53
2022-10-13T12:27:00.055Z,9.93
2022-10-13T12:29:36.340Z,10.20
2022-10-13T12:32:23.830Z,8.40
2022-10-13T12:34:51.486Z,10.80
2022-10-13T12:37:27.261Z,11.50
2022-10-13T12:39:57.119Z,10.07
2022-10-13T12:42:29.988Z,11.83
2022-10-13T12:45:01.482Z,9.10
2022-10-13T12:47:41.140Z,8.27
2022-10-13T12:50:39.583Z,9.33
2022-10-13T12:53:14.088Z,11.63
2022-10-13T12:55:56.172Z,11.47
2022-10-13T12:58:27.411Z,10.67
2022-10-13T13:01:10.246Z,8.27
2022-10-13T13:03:38.997Z,9.37
2022-10-13T13:06:12.537Z,8.07
2022-10-13T13:08:41.852Z,9.53
2022-10-13T13:11:22.456Z,7.30
2022-10-13T13:13:50.244Z,9.80
2022-10-13T13:16:21.713Z,11.03
2022-10-13T13:18:50.847Z,8.73
2022-10-13T13:21:20.036Z,10.23
2022-10-13T13:23:52.909Z,9.07
2022-10-13T13:26:24.017Z,9.33
2022-10-13T13:28:53.349Z,11.37
2022-10-13T13:31:25.572Z,11.77
2022-10-13T13:33:53.412Z,9.03
2022-10-13T13:36:22.582Z,9.70
2022-10-13T13:38:50.681Z,9.07
2022-10-13T13:41:18.910Z,8.87
2022-10-13T13:43:46.670Z,7.63
2022-10-13T13:46:18.064Z,8.77
2022-10-13T13:48:47.002Z,10.83
2022-10-13T13:51:14.739Z,9.83
2022-10-13T13:53:42.513Z,9.47
2022-10-13T13:56:13.683Z,9.60
2022-10-13T13:58:41.353Z,10.57
2022-10-13T14:01:09.372Z,9.30
2022-10-13T14:03:36.954Z,10.53
2022-10-13T14:06:06.176Z,7.17
2022-10-13T14:08:35.187Z,8.20
2022-10-13T14:11:06.796Z,9.57
2022-10-13T14:13:34.462Z,8.37
2022-10-13T14:16:03.484Z,8.80
2022-10-13T14:18:32.204Z,9.93
2022-10-13T14:20:59.868Z,9.07
2022-10-13T14:23:28.858Z,9.53
2022-10-13T14:25:56.414Z,8.20
2022-10-13T14:28:24.114Z,10.03
2022-10-13T14:30:52.148Z,9.67
2022-10-13T14:33:19.749Z,9.80
2022-10-13T14:35:47.393Z,11.97
2022-10-13T14:38:15.168Z,8.57
2022-10-13T14:40:44.119Z,7.90
2022-10-13T14:43:11.670Z,8.10
2022-10-13T14:45:39.272Z,7.97
2022-10-13T14:48:07.157Z,7.33
2022-10-13T14:50:34.716Z,7.53
2022-10-13T14:53:02.276Z,7.77
2022-10-13T14:55:29.925Z,7.40
2022-10-13T14:57:58.856Z,7.28
2022-10-13T15:00:26.426Z,7.65
2022-10-13T15:02:54.354Z,7.70
2022-10-13T15:05:21.954Z,7.93
2022-10-13T15:07:49.899Z,8.47
2022-10-13T15:10:17.646Z,8.25
2022-10-13T15:12:45.257Z,6.88
2022-10-13T15:15:14.244Z,6.35
2022-10-13T15:17:41.838Z,8.00
2022-10-13T15:20:10.603Z,7.10
2022-10-13T15:22:38.228Z,9.20
2022-10-13T15:25:09.843Z,8.98
2022-10-13T15:27:41.844Z,10.15
2022-10-13T15:30:12.281Z,6.35
2022-10-13T15:32:41.318Z,7.85
2022-10-13T15:35:09.623Z,8.10
2022-10-13T15:37:37.344Z,8.88
2022-10-13T15:40:05.514Z,7.53
2022-10-13T15:42:33.113Z,6.30
2022-10-13T15:45:16.060Z,8.55
2022-10-13T15:47:44.990Z,7.57
2022-10-13T15:50:12.612Z,9.38
2022-10-13T15:52:40.759Z,8.45
2022-10-13T15:55:09.635Z,12.00
2022-10-13T15:57:37.452Z,7.30
2022-10-13T16:00:06.182Z,9.87
2022-10-13T16:02:33.792Z,9.55
2022-10-13T16:05:05.192Z,9.00
2022-10-13T16:07:32.938Z,7.40
2022-10-13T16:10:00.572Z,9.03
2022-10-13T16:12:29.258Z,10.77
2022-10-13T16:14:56.907Z,7.47
2022-10-13T16:17:24.577Z,10.30
2022-10-13T16:19:52.182Z,7.20
2022-10-13T16:22:21.393Z,7.63
2022-10-13T16:24:49.170Z,8.03
2022-10-13T16:27:16.856Z,7.73
2022-10-13T16:29:44.594Z,8.33
2022-10-13T16:32:12.262Z,8.90
2022-10-13T16:34:39.932Z,9.00
2022-10-13T16:37:07.673Z,9.47
2022-10-13T16:39:41.397Z,10.93
2022-10-13T16:42:10.746Z,9.47
2022-10-13T16:44:38.426Z,9.73
2022-10-13T16:47:06.464Z,9.43
2022-10-13T16:49:34.968Z,10.20
2022-10-13T16:52:02.578Z,10.93
2022-10-13T16:54:32.591Z,8.50
2022-10-13T16:57:01.600Z,9.53
2022-10-13T16:59:29.678Z,7.13
2022-10-13T17:01:57.820Z,9.80
2022-10-13T17:04:25.442Z,10.47
2022-10-13T17:06:53.420Z,8.90
2022-10-13T17:09:21.185Z,9.20
2022-10-13T17:11:48.843Z,9.60
2022-10-13T17:14:17.769Z,8.13
2022-10-13T17:16:45.328Z,10.07
2022-10-13T17:19:13.005Z,7.90
2022-10-13T17:21:40.676Z,9.87
2022-10-13T17:24:08.439Z,9.03
2022-10-13T17:26:36.140Z,9.27
2022-10-13T17:29:03.870Z,11.27
2022-10-13T17:31:32.759Z,11.27
2022-10-13T17:34:00.716Z,9.20
2022-10-13T17:36:31.666Z,9.70
2022-10-13T17:39:05.142Z,9.87
2022-10-13T17:41:33.198Z,9.97
2022-10-13T17:44:00.924Z,9.87
2022-10-13T17:46:36.964Z,8.63
2022-10-13T17:49:07.764Z,9.97
2022-10-13T17:51:35.581Z,10.33
2022-10-13T17:54:03.351Z,9.23
2022-10-13T17:56:31.588Z,10.77
2022-10-13T17:59:02.420Z,8.33
2022-10-13T18:01:33.805Z,10.73
2022-10-13T18:04:03.392Z,13.30
2022-10-13T18:06:38.627Z,13.73
2022-10-13T18:09:08.154Z,10.33
2022-10-13T18:11:36.170Z,10.83
2022-10-13T18:14:04.026Z,8.60
2022-10-13T18:16:31.687Z,10.53
2022-10-13T18:18:59.308Z,14.43
2022-10-13T18:21:27.245Z,9.90
2022-10-13T18:23:57.448Z,10.50
2022-10-13T18:26:26.895Z,10.90
2022-10-13T18:28:54.991Z,9.47
2022-10-13T18:31:24.530Z,14.53
2022-10-13T18:33:52.914Z,9.53
2022-10-13T18:36:23.601Z,12.27
2022-10-13T18:38:51.524Z,9.30
2022-10-13T18:41:22.170Z,8.20
2022-10-13T18:43:49.845Z,10.75
2022-10-13T18:46:17.690Z,10.37
2022-10-13T18:48:45.347Z,10.77
2022-10-13T18:51:14.524Z,11.02
2022-10-13T18:53:44.721Z,9.87
2022-10-13T18:56:14.603Z,9.13
2022-10-13T18:58:43.581Z,9.97
2022-10-13T19:01:13.376Z,9.70
2022-10-13T19:03:42.475Z,8.32
2022-10-13T19:06:12.297Z,12.93
2022-10-13T19:08:40.586Z,12.10
2022-10-13T19:11:12.443Z,10.80
2022-10-13T19:13:40.164Z,10.07
2022-10-13T19:16:10.064Z,10.47
2022-10-13T19:18:38.093Z,12.77
2022-10-13T19:21:06.710Z,10.63
2022-10-13T19:23:34.445Z,10.07
2022-10-13T19:26:09.027Z,12.07
2022-10-13T19:28:40.535Z,11.63
2022-10-13T19:31:10.533Z,13.27
2022-10-13T19:33:43.559Z,11.83
2022-10-13T19:36:20.388Z,11.97
2022-10-13T19:38:48.240Z,15.00
2022-10-13T19:41:16.132Z,14.10
2022-10-13T19:43:43.999Z,11.37
2022-10-13T19:46:13.474Z,13.33
2022-10-13T19:48:41.294Z,12.43
2022-10-13T19:51:10.552Z,11.80
2022-10-13T19:53:38.652Z,14.83
2022-10-13T19:56:07.832Z,11.63
2022-10-13T19:58:36.267Z,9.90
2022-10-13T20:01:05.525Z,11.90
2022-10-13T20:03:34.632Z,10.83
2022-10-13T20:06:05.404Z,10.00
2022-10-13T20:08:33.267Z,11.57
2022-10-13T20:11:07.125Z,12.83
2022-10-13T20:13:34.835Z,15.80
2022-10-13T20:16:07.029Z,11.30
2022-10-13T20:18:38.450Z,11.37
2022-10-13T20:21:07.875Z,12.47
2022-10-13T20:23:36.135Z,10.07
2022-10-13T20:26:04.330Z,12.70
2022-10-13T20:28:32.178Z,9.73
2022-10-13T20:31:02.541Z,12.93
2022-10-13T20:33:30.235Z,9.97
2022-10-13T20:36:01.212Z,11.97
2022-10-13T20:38:30.493Z,9.47
2022-10-13T20:41:04.621Z,8.83
2022-10-13T20:43:32.220Z,10.90
2022-10-13T20:46:01.497Z,9.30
2022-10-13T20:48:51.240Z,10.50
2022-10-13T20:51:26.037Z,9.47
2022-10-13T20:53:54.141Z,9.77
2022-10-13T20:56:23.342Z,8.33
2022-10-13T20:58:51.469Z,12.83
2022-10-13T21:01:20.487Z,9.83
2022-10-13T21:03:52.934Z,11.83
2022-10-13T21:06:24.757Z,8.40
2022-10-13T21:08:52.745Z,10.17
2022-10-13T21:11:21.918Z,10.73
2022-10-13T21:13:50.941Z,9.73
2022-10-13T21:16:24.766Z,8.60
2022-10-13T21:18:53.452Z,9.37
2022-10-13T21:21:24.442Z,8.30
2022-10-13T21:23:52.863Z,10.77
2022-10-13T21:26:22.457Z,10.67
2022-10-13T21:28:51.092Z,13.13
2022-10-13T21:31:20.744Z,8.90
2022-10-13T21:33:49.296Z,13.20
2022-10-13T21:36:19.163Z,11.60
2022-10-13T21:38:50.851Z,8.73
2022-10-13T21:41:18.921Z,11.93
2022-10-13T21:43:46.679Z,9.67
2022-10-13T21:46:16.637Z,12.87
2022-10-13T21:48:45.208Z,8.77
2022-10-13T21:51:14.972Z,11.53
2022-10-13T21:53:43.193Z,9.17
2022-10-13T21:56:12.695Z,9.43
2022-10-13T21:58:40.607Z,11.73
2022-10-13T22:01:08.892Z,12.30
2022-10-13T22:03:36.594Z,12.27
2022-10-13T22:06:08.920Z,10.80
2022-10-13T22:08:38.973Z,9.17
2022-10-13T22:11:08.214Z,10.30
2022-10-13T22:13:37.958Z,10.30
2022-10-13T22:16:06.534Z,10.33
2022-10-13T22:18:34.107Z,8.93
2022-10-13T22:21:02.924Z,10.97
2022-10-13T22:23:30.562Z,9.53
2022-10-13T22:25:58.235Z,10.80
2022-10-13T22:28:25.956Z,10.07
2022-10-13T22:30:55.059Z,8.37
2022-10-13T22:33:22.716Z,9.10
2022-10-13T22:35:50.307Z,9.73
2022-10-13T22:38:17.938Z,10.00
2022-10-13T22:40:45.563Z,10.37
2022-10-13T22:43:13.120Z,9.50
2022-10-13T22:45:40.681Z,7.47
2022-10-13T22:48:12.014Z,7.30
2022-10-13T22:50:39.629Z,8.40
2022-10-13T22:53:07.186Z,6.50
2022-10-13T22:55:34.798Z,6.50
2022-10-13T22:58:02.385Z,6.30
2022-10-13T23:00:29.953Z,6.67
2022-10-13T23:02:57.906Z,5.07
2022-10-13T23:05:26.929Z,6.83
2022-10-13T23:07:54.531Z,4.83
2022-10-13T23:10:22.132Z,5.43
2022-10-13T23:12:49.785Z,7.10
2022-10-13T23:15:17.397Z,4.83
2022-10-13T23:17:44.987Z,4.57
2022-10-13T23:20:12.913Z,4.10
2022-10-13T23:22:41.986Z,3.07
2022-10-13T23:25:09.758Z,4.67
2022-10-13T23:27:37.401Z,2.57
2022-10-13T23:30:06.132Z,5.20
2022-10-13T23:32:33.831Z,3.60
2022-10-13T23:35:01.400Z,3.77
2022-10-13T23:37:29.019Z,3.10
2022-10-13T23:39:57.969Z,5.73
2022-10-13T23:42:25.647Z,3.90
2022-10-13T23:44:53.239Z,5.10
2022-10-13T23:47:20.948Z,3.50
2022-10-13T23:49:48.693Z,3.80
2022-10-13T23:52:16.313Z,3.43
2022-10-13T23:54:44.049Z,2.97
2022-10-13T23:57:12.979Z,4.03
2022-10-13T23:59:40.618Z,3.50
